| time (UTC) | temp C | wind direction | speed KPH | gust KPH | rain 1hr cm | rain 24hr cm | rain mn cm | humidity % | barometer mb |
| 20260905084003 | 18 | 129 | 8.0 | 16.1 | 0.00 | 0.13 | 0.13 | 65 | 1014.8 |
| 20260905083003 | 18 | 74 | 1.6 | 6.4 | 0.00 | 0.13 | 0.13 | 70 | 1014.7 |
| 20260905082003 | 16 | 118 | 6.4 | 12.9 | 0.00 | 0.13 | 0.13 | 75 | 1014.9 |
| 20260905081003 | 16 | 101 | 6.4 | 16.1 | 0.00 | 0.13 | 0.13 | 75 | 1014.6 |
| 20260905080003 | 16 | 99 | 6.4 | 12.9 | 0.00 | 0.13 | 0.13 | 76 | 1014.4 |
| 20260905075003 | 16 | 95 | 4.8 | 9.7 | 0.00 | 0.13 | 0.13 | 77 | 1014.3 |
| 20260905074003 | 15 | 102 | 8.0 | 16.1 | 0.00 | 0.13 | 0.13 | 77 | 1014.3 |
| 20260905073003 | 15 | 97 | 6.4 | 12.9 | 0.00 | 0.13 | 0.13 | 80 | 1013.9 |
| 20260905072002 | 15 | 119 | 4.8 | 8.0 | 0.00 | 0.13 | 0.13 | 81 | 1013.8 |
| 20260905071003 | 14 | 78 | 4.8 | 11.3 | 0.00 | 0.13 | 0.13 | 82 | 1013.4 |
| 20260905070002 | 14 | 96 | 4.8 | 8.0 | 0.00 | 0.13 | 0.13 | 83 | 1013.5 |
| 20260905065003 | 14 | 92 | 3.2 | 6.4 | 0.00 | 0.13 | 0.13 | 84 | 1013.8 |
| 20260905064002 | 14 | 136 | 1.6 | 6.4 | 0.05 | 0.13 | 0.13 | 86 | 1013.7 |
| 20260905063003 | 13 | 137 | 1.6 | 9.7 | 0.05 | 0.13 | 0.13 | 87 | 1013.9 |
| 20260905062003 | 13 | 127 | 1.6 | 6.4 | 0.05 | 0.13 | 0.13 | 86 | 1013.7 |
| 20260905061002 | 13 | 227 | 3.2 | 6.4 | 0.10 | 0.13 | 0.13 | 85 | 1013.8 |
| 20260905060003 | 13 | 80 | 1.6 | 4.8 | 0.10 | 0.13 | 0.13 | 84 | 1013.5 |
| 20260905054003 | 14 | 111 | 4.8 | 11.3 | 0.03 | 0.05 | 0.05 | 81 | 1013.8 |
| 20260905052003 | 14 | 101 | 8.0 | 17.7 | 0.03 | 0.05 | 0.05 | 77 | 1013.8 |
| 20260905051003 | 15 | 91 | 6.4 | 12.9 | 0.00 | 0.03 | 0.03 | 80 | 1013.6 |
| 20260905045003 | 15 | 130 | 1.6 | 3.2 | 0.00 | 0.03 | 0.03 | 83 | 1013.1 |
| 20260905044003 | 15 | 100 | 3.2 | 6.4 | 0.00 | 0.03 | 0.03 | 83 | 1013.2 |
| 20260905043003 | 15 | 110 | 3.2 | 6.4 | 0.03 | 0.03 | 0.03 | 84 | 1013.0 |
| 20260905042003 | 15 | 94 | 3.2 | 6.4 | 0.03 | 0.03 | 0.03 | 84 | 1013.0 |
| 20260905041004 | 15 | 142 | 1.6 | 4.8 | 0.03 | 0.03 | 0.03 | 83 | 1012.7 |
| 20260905040003 | 15 | 108 | 3.2 | 6.4 | 0.03 | 0.03 | 0.03 | 81 | 1012.5 |
| 20260905034003 | 15 | 140 | 4.8 | 12.9 | 0.03 | 0.03 | 0.03 | 78 | 1012.3 |
| 20260905033004 | 16 | 88 | 6.4 | 12.9 | 0.00 | 0.00 | 0.00 | 78 | 1012.9 |
| 20260905032003 | 16 | 112 | 4.8 | 8.0 | 0.00 | 0.00 | 0.00 | 77 | 1011.7 |
| 20260905031003 | 16 | 136 | 4.8 | 11.3 | 0.00 | 0.00 | 0.00 | 76 | 1011.6 |
| 20260905030003 | 16 | 147 | 6.4 | 12.9 | 0.00 | 0.00 | 0.00 | 76 | 1012.3 |
| 20260905025004 | 16 | 110 | 11.3 | 16.1 | 0.00 | 0.00 | 0.00 | 75 | 1012.1 |